الصفحة الرئيسية
METAR-TAF:

METAR-TAF

مطار :

Villamontes, بوليفيا

دائرة عرض: 21-15S, خط طول: 063-27W, ارتفاع: 398 متر

مراقبة الطقس الحالي

تاريخ ووقت الإصدار 1ساعة و 59 دقيقة قبل الساعة 21:00UTC
رياح هادئة
درجة الحرارة 24°درجة مئوية
الرطوبة 57%
ضغط 1006 hPa
الرؤية 10 كم أو أكثر
غيوم مفككة على ارتفاع 7000 قدم

METAR: SLVM 172100Z 00000KT 9999 BKN070 24/15 Q1006

زمن: 18:59 (22:59 UTC)


TAF: مفقودة

أرصاد الطقس والتوقعات من أكثر من 4000 مطار (تقارير الطقس للمطار METAR والتنبؤ بالطقس بالمطارTAF).

المحطات المتاحة هي النقط الصفراء والحمراء على الخريطة.

حرك المؤشر فوق النقطة لمعرفة اسم المحطة.

ثم انقر لمعرفة أرصاد وتوقعات الطقس.

لتغيير الخارطة: اضغط على الأزرار الخضراء مع رمز الصليب الأسود للتكبير. على الزر الأخضر مع شرطة للتصغير، أو على الأسهم الخضراء للخرائط المجاورة.


METAR-TAF: